Station: Middle Percy Island  

  Atmospheric Gas Attenuation - ITU Rec 676-11   ----------------- dB/100km -----------------
Date Time Temp RH % AH g/m3 Dew Point Wind Direction Speed kph Gust kph Barometer mB Rainfall Since 9am 24GHz 47GHz 76GHz 122GHz 134GHz 241GHz
08/05 12:30 20.2 59 10.32 11.9 28 35 1017.9 0 22.9 26.9 43.5 114.3 112.6 388.8
08/05 12:20 20.1 59 10.26 11.8 32 37 1018 0 22.8 26.9 43.3 113.8 111.9 386.7
08/05 12:10 20.1 61 10.6 12.3 30 35 1018.2 0 23.5 27.4 44.7 117.4 116.4 402.1
08/05 12:00 20.1 62 10.78 12.6 30 39 1018.3 0 23.9 27.7 45.4 119.3 118.7 410.4
08/05 11:50 20.3 59 10.38 12.2 26 32 1018.4 0 23.0 27.0 43.7 114.8 113.2 391.2
08/05 11:40 20 60 10.37 12 32 33 1018.5 0 23.0 27.1 43.8 115.2 113.6 392.3
08/05 11:30 20 59 10.2 11.8 30 39 1018.6 0 22.7 26.8 43.2 113.4 111.4 384.6
08/05 11:20 19.8 60 10.25 11.8 32 41 1018.6 0 22.8 27.0 43.5 114.2 112.3 387.9
08/05 11:10 19.8 60 10.25 11.8 37 43 1018.5 0 22.8 27.0 43.5 114.2 112.3 387.8
08/05 11:00 19.7 59 10.02 11.5 33 44 1018.8 0 22.3 26.6 42.6 112.0 109.5 378.0
08/05 10:50 19.7 58 9.85 11.4 33 37 1019 0 21.9 26.4 42.0 110.2 107.3 370.5
08/05 10:40 19.9 60 10.31 11.9 28 33 1019.2 0 22.9 27.0 43.7 114.8 113.0 390.3
08/05 10:30 19.9 61 10.48 12.2 32 41 1019.2 0 23.3 27.3 44.3 116.6 115.2 398.0
08/05 10:20 19.7 60 10.19 11.9 26 30 1019.3 0 22.7 26.9 43.3 113.8 111.7 385.9
08/05 10:10 19.7 58 9.85 11.4 35 41 1019.1 0 21.9 26.4 42.0 110.2 107.3 370.5
08/05 10:00 19.7 61 10.36 12 32 43 1019.1 0 23.0 27.2 44.0 115.6 113.9 393.5
08/05 09:50 19.7 62 10.53 12.2 32 37 1019.1 0 23.4 27.5 44.6 117.4 116.1 401.3
08/05 09:40 19.5 60 10.07 11.7 35 41 1019.1 0 22.4 26.8 42.9 112.8 110.5 381.3
08/05 09:30 19.6 60 10.13 11.6 33 43 1019.2 0 22.5 26.9 43.1 113.3 111.1 383.6
08/05 09:20 19.5 60 10.07 11.5 37 43 1019.2 0 22.4 26.8 42.9 112.8 110.5 381.4
08/05 09:10 19.5 58 9.73 11 39 44 1019.1 0 21.7 26.2 41.6 109.3 106.1 366.1
08/05 09:00 19.7 61 10.36 12 33 43 1019 0 23.0 27.2 44.0 115.6 113.9 393.5
08/05 08:50 19.5 60 10.07 11.7 32 39 1018.9 0.2 22.4 26.8 42.9 112.8 110.4 381.3
08/05 08:40 19.7 62 10.53 12.4 33 39 1019 0.2 23.4 27.5 44.6 117.4 116.1 401.2
08/05 08:30 19.6 60 10.13 11.6 35 46 1018.8 0.2 22.5 26.8 43.1 113.3 111.1 383.5
08/05 08:20 19.9 60 10.31 12.1 32 41 1018.8 0.2 22.9 27.0 43.6 114.7 113.0 390.1
08/05 08:10 19.9 62 10.65 12.4 32 39 1018.8 0.2 23.6 27.6 45.0 118.3 117.4 405.6
08/05 08:00 20 61 10.54 12.3 33 44 1018.6 0.2 23.4 27.4 44.5 117.0 115.8 400.0
08/05 07:50 19.8 60 10.25 11.8 33 39 1018.6 0.2 22.8 27.0 43.5 114.2 112.3 387.9
08/05 07:40 19.6 64 10.8 12.6 32 37 1018.6 0.2 24.0 27.9 45.8 120.4 119.8 414.0
08/05 07:30 19.8 62 10.59 12.3 33 43 1018.4 0.2 23.5 27.5 44.8 117.8 116.7 403.3
08/05 07:20 19.8 62 10.59 12.5 35 41 1018.3 0.2 23.5 27.5 44.8 117.8 116.7 403.2
08/05 07:10 19.9 64 10.99 12.9 39 41 1017.9 0.2 24.3 28.1 46.3 121.9 121.8 421.0
08/05 07:00 20 63 10.89 12.7 33 41 1017.8 0.2 24.1 27.9 45.8 120.6 120.3 415.8
08/05 06:50 20.1 62 10.78 12.6 32 37 1017.7 0.2 23.9 27.7 45.3 119.3 118.7 410.2
08/05 06:40 20.1 62 10.78 12.6 37 44 1017.4 0.2 23.9 27.7 45.3 119.2 118.6 410.1
08/05 06:30 20.2 63 11.01 12.9 33 46 1017.4 0.2 24.4 28.0 46.2 121.6 121.5 420.1
08/05 06:20 20.3 61 10.73 12.7 37 41 1017.3 0.2 23.8 27.5 45.0 118.4 117.7 406.7
08/05 06:10 20.4 61 10.79 12.6 35 43 1017.2 0.2 23.9 27.6 45.2 118.9 118.3 408.9
08/05 06:00 20.4 63 11.14 13.1 30 41 1017.1 0.2 24.6 28.1 46.6 122.6 122.9 424.9
08/05 05:50 20.6 63 11.27 13.3 33 41 1016.9 0.2 24.9 28.3 47.0 123.7 124.3 429.8
08/05 05:40 20.7 61 10.98 12.9 35 41 1016.8 0.2 24.3 27.8 45.8 120.4 120.3 415.9
08/05 05:30 20.8 64 11.59 13.7 32 43 1016.8 0.2 25.6 28.7 48.1 126.8 128.2 443.5
08/05 05:20 20.8 63 11.41 13.5 32 37 1016.7 0.2 25.2 28.4 47.4 124.8 125.8 435.1
08/05 05:10 20.9 63 11.47 13.6 35 43 1016.4 0.2 25.3 28.5 47.6 125.3 126.4 437.2
08/05 05:00 21 64 11.72 13.9 28 41 1016.4 0.2 25.8 28.9 48.5 127.8 129.5 448.2
08/05 04:50 21 66 12.09 14.4 30 35 1016.3 0.2 26.6 29.5 50.0 131.8 134.5 465.5
08/05 04:40 21.1 66 12.16 14.5 32 37 1016.1 0.2 26.7 29.6 50.3 132.4 135.2 468.2
08/05 04:30 21.1 66 12.16 14.5 30 41 1016 0.2 26.7 29.5 50.3 132.4 135.2 468.1
08/05 04:20 21.1 67 12.34 14.7 35 43 1016 0.2 27.1 29.8 51.0 134.4 137.6 476.6
08/05 04:10 21.2 67 12.42 15 30 39 1016 0.2 27.3 29.9 51.3 135.1 138.6 479.8
08/05 04:00 21.3 69 12.86 15.4 30 39 1015.8 0.2 28.2 30.6 53.0 139.8 144.4 500.1
08/05 03:50 21.3 68 12.67 15.3 26 30 1015.9 0.2 27.8 30.3 52.2 137.7 141.8 491.0
08/05 03:40 21.4 67 12.56 15.2 33 41 1015.8 0.2 27.6 30.1 51.7 136.3 140.1 485.1
08/05 03:30 21.4 70 13.12 15.7 26 37 1015.8 0.2 28.8 31.0 54.0 142.5 147.8 511.9
08/05 03:20 21.5 70 13.2 15.8 32 35 1015.8 0.2 28.9 31.1 54.3 143.2 148.7 515.1
08/05 03:10 21.4 70 13.12 15.7 28 32 1015.7 0.2 28.8 31.0 54.0 142.5 147.7 511.9
08/05 03:00 21.4 72 13.5 16.1 26 32 1015.7 0.2 29.6 31.7 55.6 146.8 153.0 530.4
08/05 02:50 21.4 72 13.5 16.1 30 33 1015.7 0.2 29.6 31.7 55.6 146.8 153.0 530.4
08/05 02:40 21.5 72 13.58 16.2 28 30 1015.8 0.2 29.7 31.8 55.9 147.5 154.0 533.6
08/05 02:30 21.5 72 13.58 16.2 22 30 1015.9 0 29.7 31.8 55.9 147.5 154.0 533.7
08/05 02:20 21.4 72 13.5 16.3 26 30 1015.9 0 29.6 31.7 55.7 146.8 153.1 530.4
08/05 02:10 21.4 73 13.68 16.5 22 26 1015.9 0 30.0 32.0 56.4 148.9 155.6 539.2
08/05 02:00 21.6 72 13.65 16.3 22 32 1015.9 0 29.9 31.9 56.2 148.1 154.8 536.4
08/05 01:50 21.6 73 13.84 16.5 20 24 1015.8 0 30.3 32.2 57.0 150.3 157.4 545.7
08/05 01:40 21.7 83 15.83 18.8 22 26 1015.8 0 34.5 35.7 65.7 173.6 186.0 645.5
08/05 01:30 21.6 84 15.93 18.8 22 30 1015.9 0 34.7 35.9 66.3 175.0 187.8 651.6
08/05 01:20 22 80 15.53 18.4 24 28 1015.8 0 33.8 35.0 64.1 169.3 180.9 627.5
08/05 01:10 21.8 79 15.16 18 26 32 1015.9 0 33.1 34.5 62.6 165.3 175.9 610.2
08/05 01:00 21.4 87 16.31 19.1 20 28 1016.1 0 35.6 36.7 68.2 180.2 194.1 673.4
08/05 00:50 21.5 91 17.16 19.9 20 24 1016.2 0 37.4 38.3 72.1 190.6 206.9 717.9
08/05 00:40 21.6 92 17.45 20.2 19 22 1016.2 0 38.0 38.8 73.4 194.0 211.1 732.6
08/05 00:30 21.7 95 18.12 20.9 19 26 1016.2 0 39.4 40.1 76.5 202.3 221.3 768.3
08/05 00:20 21.8 95 18.23 20.9 17 19 1016.3 0 39.6 40.2 77.0 203.5 222.8 773.4
08/05 00:10 21.8 95 18.23 20.9 19 22 1016.4 0 39.6 40.2 77.0 203.5 222.8 773.5
08/05 00:00 21.9 95 18.33 21.1 15 20 1016.4 0 39.8 40.4 77.4 204.5 224.1 778.0
07/05 23:50 22.1 93 18.15 21 13 17 1016.4 0 39.4 39.9 76.3 201.7 220.7 766.0
07/05 23:40 22.1 93 18.15 20.9 19 22 1016.4 0 39.4 39.9 76.3 201.7 220.7 766.0
07/05 23:30 21.9 92 17.75 20.5 17 22 1016.6 0 38.6 39.3 74.6 197.1 215.0 746.2
07/05 23:20 22 92 17.85 20.6 17 20 1016.7 0 38.8 39.4 74.9 198.1 216.3 750.7
07/05 23:10 22 92 17.85 20.6 15 19 1016.8 0 38.8 39.4 75.0 198.2 216.3 750.8
07/05 23:00 21.9 93 17.94 20.7 15 20 1016.8 0 39.0 39.6 75.5 199.6 218.0 756.7
07/05 22:50 21.7 92 17.55 20.3 13 19 1016.9 0 38.2 39.0 73.8 195.1 212.5 737.5
07/05 22:40 21.9 92 17.75 20.5 13 15 1016.8 0 38.6 39.3 74.6 197.1 215.0 746.3
07/05 22:30 21.9 91 17.56 20.4 13 19 1016.9 0 38.2 38.9 73.7 194.7 212.1 736.0
07/05 22:20 21.8 91 17.46 20.2 15 17 1016.8 0 38.0 38.8 73.3 193.7 210.8 731.5
07/05 22:10 21.8 91 17.46 20.2 17 19 1016.9 0 38.0 38.8 73.3 193.7 210.8 731.6
07/05 22:00 21.8 93 17.84 20.6 13 20 1017 0 38.8 39.5 75.1 198.6 216.7 752.3
07/05 21:50 21.9 93 17.94 20.7 13 15 1017 0 39.0 39.7 75.5 199.6 218.0 756.8
07/05 21:40 21.9 92 17.75 20.5 13 15 1017 0 38.6 39.3 74.6 197.2 215.0 746.4
07/05 21:30 21.9 93 17.94 20.7 13 19 1017 0 39.0 39.7 75.5 199.6 218.0 756.8
07/05 21:20 21.9 93 17.94 20.7 11 13 1017 0 39.0 39.7 75.5 199.6 218.0 756.8
07/05 21:10 21.9 92 17.75 20.5 13 15 1017 0 38.6 39.3 74.6 197.2 215.0 746.4
07/05 21:00 22 92 17.85 20.6 11 19 1017.1 0 38.8 39.4 75.0 198.2 216.3 750.9
07/05 20:50 22 92 17.85 20.6 15 17 1017.1 0 38.8 39.4 75.0 198.2 216.3 750.9
07/05 20:40 21.9 92 17.75 20.5 9 11 1017.1 0 38.6 39.3 74.6 197.2 215.1 746.5
07/05 20:30 22 91 17.66 20.5 13 17 1017 0 38.4 39.1 74.1 195.8 213.3 740.5
07/05 20:20 21.9 91 17.56 20.3 15 17 1017 0 38.2 38.9 73.7 194.8 212.1 736.1
07/05 20:10 22 92 17.85 20.6 13 15 1017 0 38.8 39.4 75.0 198.2 216.3 750.9
07/05 20:00 21.9 92 17.75 20.5 13 19 1016.8 0 38.6 39.3 74.6 197.1 215.0 746.3

Last Refresh: 08-May-2026 12:07:19

Bureau of Meteorology